sensor_id;sensor_type;location;lat;lon;timestamp;P1;durP1;ratioP1;P2;durP2;ratioP2
27839;SDS011;15207;42.182;24.308;2024-02-14T00:01:16;171.30;;;161.30;;
27839;SDS011;15207;42.182;24.308;2024-02-14T00:03:41;173.95;;;163.35;;
27839;SDS011;15207;42.182;24.308;2024-02-14T00:06:07;168.10;;;157.90;;
27839;SDS011;15207;42.182;24.308;2024-02-14T00:08:33;168.95;;;158.75;;
27839;SDS011;15207;42.182;24.308;2024-02-14T00:13:23;168.90;;;159.10;;
27839;SDS011;15207;42.182;24.308;2024-02-14T00:18:16;170.85;;;160.50;;
27839;SDS011;15207;42.182;24.308;2024-02-14T00:20:41;165.10;;;155.00;;
27839;SDS011;15207;42.182;24.308;2024-02-14T00:23:07;167.20;;;157.18;;
27839;SDS011;15207;42.182;24.308;2024-02-14T00:25:32;169.60;;;158.80;;
27839;SDS011;15207;42.182;24.308;2024-02-14T00:27:57;161.75;;;152.15;;
27839;SDS011;15207;42.182;24.308;2024-02-14T00:30:26;166.70;;;155.93;;
27839;SDS011;15207;42.182;24.308;2024-02-14T00:32:51;160.45;;;150.85;;
27839;SDS011;15207;42.182;24.308;2024-02-14T00:35:17;159.60;;;149.60;;
27839;SDS011;15207;42.182;24.308;2024-02-14T00:37:42;170.20;;;159.80;;
27839;SDS011;15207;42.182;24.308;2024-02-14T00:40:08;160.40;;;150.50;;
27839;SDS011;15207;42.182;24.308;2024-02-14T00:42:35;165.70;;;155.60;;
27839;SDS011;15207;42.182;24.308;2024-02-14T00:45:01;161.00;;;151.30;;
27839;SDS011;15207;42.182;24.308;2024-02-14T00:47:28;174.68;;;162.73;;
27839;SDS011;15207;42.182;24.308;2024-02-14T00:49:53;156.30;;;147.00;;
27839;SDS011;15207;42.182;24.308;2024-02-14T00:52:19;161.05;;;151.10;;
27839;SDS011;15207;42.182;24.308;2024-02-14T00:54:46;158.50;;;149.20;;
27839;SDS011;15207;42.182;24.308;2024-02-14T00:57:12;157.60;;;147.70;;
27839;SDS011;15207;42.182;24.308;2024-02-14T00:59:37;161.80;;;152.03;;
27839;SDS011;15207;42.182;24.308;2024-02-14T01:02:03;162.30;;;152.65;;
27839;SDS011;15207;42.182;24.308;2024-02-14T01:04:29;164.20;;;153.90;;
27839;SDS011;15207;42.182;24.308;2024-02-14T01:06:55;149.45;;;140.45;;
27839;SDS011;15207;42.182;24.308;2024-02-14T01:09:20;156.10;;;146.40;;
27839;SDS011;15207;42.182;24.308;2024-02-14T01:11:47;155.30;;;146.00;;
27839;SDS011;15207;42.182;24.308;2024-02-14T01:14:13;162.05;;;152.00;;
27839;SDS011;15207;42.182;24.308;2024-02-14T01:16:44;161.30;;;151.60;;
27839;SDS011;15207;42.182;24.308;2024-02-14T01:19:10;160.15;;;150.45;;
27839;SDS011;15207;42.182;24.308;2024-02-14T01:21:36;162.10;;;152.05;;
27839;SDS011;15207;42.182;24.308;2024-02-14T01:24:01;162.85;;;153.05;;
27839;SDS011;15207;42.182;24.308;2024-02-14T01:26:27;168.90;;;158.40;;
27839;SDS011;15207;42.182;24.308;2024-02-14T01:28:52;157.35;;;147.90;;
27839;SDS011;15207;42.182;24.308;2024-02-14T01:31:18;158.40;;;148.75;;
27839;SDS011;15207;42.182;24.308;2024-02-14T01:33:45;164.30;;;154.40;;
27839;SDS011;15207;42.182;24.308;2024-02-14T01:36:11;158.00;;;148.50;;
27839;SDS011;15207;42.182;24.308;2024-02-14T01:41:02;157.90;;;148.60;;
27839;SDS011;15207;42.182;24.308;2024-02-14T01:43:28;158.25;;;148.35;;
27839;SDS011;15207;42.182;24.308;2024-02-14T01:45:55;158.60;;;148.85;;
27839;SDS011;15207;42.182;24.308;2024-02-14T01:48:23;158.70;;;149.00;;
27839;SDS011;15207;42.182;24.308;2024-02-14T01:50:48;159.50;;;150.10;;
27839;SDS011;15207;42.182;24.308;2024-02-14T01:53:14;163.70;;;153.55;;
27839;SDS011;15207;42.182;24.308;2024-02-14T01:55:40;158.53;;;148.93;;
27839;SDS011;15207;42.182;24.308;2024-02-14T01:58:06;164.18;;;154.45;;
27839;SDS011;15207;42.182;24.308;2024-02-14T02:00:32;163.80;;;153.30;;
27839;SDS011;15207;42.182;24.308;2024-02-14T02:02:59;166.70;;;157.00;;
27839;SDS011;15207;42.182;24.308;2024-02-14T02:05:24;159.30;;;148.70;;
27839;SDS011;15207;42.182;24.308;2024-02-14T02:07:49;162.20;;;152.55;;
27839;SDS011;15207;42.182;24.308;2024-02-14T02:10:15;162.70;;;152.45;;
27839;SDS011;15207;42.182;24.308;2024-02-14T02:12:41;162.37;;;152.57;;
27839;SDS011;15207;42.182;24.308;2024-02-14T02:15:07;163.40;;;153.65;;
27839;SDS011;15207;42.182;24.308;2024-02-14T02:17:37;163.55;;;153.60;;
27839;SDS011;15207;42.182;24.308;2024-02-14T02:20:04;171.20;;;159.40;;
27839;SDS011;15207;42.182;24.308;2024-02-14T02:22:32;159.70;;;150.00;;
27839;SDS011;15207;42.182;24.308;2024-02-14T02:25:00;162.70;;;152.80;;
27839;SDS011;15207;42.182;24.308;2024-02-14T02:27:26;156.35;;;146.35;;
27839;SDS011;15207;42.182;24.308;2024-02-14T02:29:51;169.10;;;158.50;;
27839;SDS011;15207;42.182;24.308;2024-02-14T02:32:17;169.45;;;159.40;;
27839;SDS011;15207;42.182;24.308;2024-02-14T02:34:43;168.50;;;158.30;;
27839;SDS011;15207;42.182;24.308;2024-02-14T02:37:10;163.80;;;154.15;;
27839;SDS011;15207;42.182;24.308;2024-02-14T02:42:02;157.60;;;148.00;;
27839;SDS011;15207;42.182;24.308;2024-02-14T02:46:54;160.80;;;150.70;;
27839;SDS011;15207;42.182;24.308;2024-02-14T02:49:20;163.45;;;153.70;;
27839;SDS011;15207;42.182;24.308;2024-02-14T02:51:46;163.10;;;153.20;;
27839;SDS011;15207;42.182;24.308;2024-02-14T02:54:12;158.30;;;148.70;;
27839;SDS011;15207;42.182;24.308;2024-02-14T02:56:38;171.80;;;161.40;;
27839;SDS011;15207;42.182;24.308;2024-02-14T02:59:05;160.50;;;151.10;;
27839;SDS011;15207;42.182;24.308;2024-02-14T03:01:37;165.75;;;155.60;;
27839;SDS011;15207;42.182;24.308;2024-02-14T03:04:02;164.40;;;153.70;;
27839;SDS011;15207;42.182;24.308;2024-02-14T03:06:28;166.93;;;156.90;;
27839;SDS011;15207;42.182;24.308;2024-02-14T03:08:53;165.95;;;155.45;;
27839;SDS011;15207;42.182;24.308;2024-02-14T03:11:20;154.10;;;144.50;;
27839;SDS011;15207;42.182;24.308;2024-02-14T03:13:47;149.90;;;139.40;;
27839;SDS011;15207;42.182;24.308;2024-02-14T03:16:14;139.50;;;130.60;;
27839;SDS011;15207;42.182;24.308;2024-02-14T03:18:40;142.35;;;133.95;;
27839;SDS011;15207;42.182;24.308;2024-02-14T03:21:05;142.35;;;132.55;;
27839;SDS011;15207;42.182;24.308;2024-02-14T03:23:31;141.15;;;132.25;;
27839;SDS011;15207;42.182;24.308;2024-02-14T03:25:56;144.40;;;135.25;;
27839;SDS011;15207;42.182;24.308;2024-02-14T03:28:22;132.50;;;124.30;;
27839;SDS011;15207;42.182;24.308;2024-02-14T03:30:47;143.50;;;134.20;;
27839;SDS011;15207;42.182;24.308;2024-02-14T03:33:13;148.90;;;140.10;;
27839;SDS011;15207;42.182;24.308;2024-02-14T03:35:38;151.00;;;140.80;;
27839;SDS011;15207;42.182;24.308;2024-02-14T03:38:04;143.25;;;134.65;;
27839;SDS011;15207;42.182;24.308;2024-02-14T03:40:29;149.20;;;139.45;;
27839;SDS011;15207;42.182;24.308;2024-02-14T03:42:55;171.00;;;160.30;;
27839;SDS011;15207;42.182;24.308;2024-02-14T03:45:21;158.10;;;148.20;;
27839;SDS011;15207;42.182;24.308;2024-02-14T03:47:47;160.40;;;150.20;;
27839;SDS011;15207;42.182;24.308;2024-02-14T03:55:04;159.60;;;149.50;;
27839;SDS011;15207;42.182;24.308;2024-02-14T03:57:30;167.40;;;157.00;;
27839;SDS011;15207;42.182;24.308;2024-02-14T03:59:59;164.52;;;154.65;;
27839;SDS011;15207;42.182;24.308;2024-02-14T04:02:28;168.90;;;158.30;;
27839;SDS011;15207;42.182;24.308;2024-02-14T04:04:53;168.10;;;157.40;;
27839;SDS011;15207;42.182;24.308;2024-02-14T04:07:19;164.30;;;154.50;;
27839;SDS011;15207;42.182;24.308;2024-02-14T04:12:10;160.10;;;150.50;;
27839;SDS011;15207;42.182;24.308;2024-02-14T04:14:35;170.20;;;159.60;;
27839;SDS011;15207;42.182;24.308;2024-02-14T04:17:01;164.70;;;154.23;;
27839;SDS011;15207;42.182;24.308;2024-02-14T04:19:27;163.55;;;153.60;;
27839;SDS011;15207;42.182;24.308;2024-02-14T04:24:19;153.60;;;143.80;;
27839;SDS011;15207;42.182;24.308;2024-02-14T04:26:44;167.50;;;157.20;;
27839;SDS011;15207;42.182;24.308;2024-02-14T04:29:10;161.25;;;151.15;;
27839;SDS011;15207;42.182;24.308;2024-02-14T04:31:35;162.80;;;152.50;;
27839;SDS011;15207;42.182;24.308;2024-02-14T04:34:01;161.75;;;151.75;;
27839;SDS011;15207;42.182;24.308;2024-02-14T04:36:26;158.70;;;148.50;;
27839;SDS011;15207;42.182;24.308;2024-02-14T04:38:52;158.70;;;149.20;;
27839;SDS011;15207;42.182;24.308;2024-02-14T04:41:18;154.85;;;145.00;;
27839;SDS011;15207;42.182;24.308;2024-02-14T04:43:43;160.70;;;150.95;;
27839;SDS011;15207;42.182;24.308;2024-02-14T04:46:09;163.20;;;152.95;;
27839;SDS011;15207;42.182;24.308;2024-02-14T04:48:35;164.70;;;154.10;;
27839;SDS011;15207;42.182;24.308;2024-02-14T04:51:01;161.30;;;151.80;;
27839;SDS011;15207;42.182;24.308;2024-02-14T04:53:27;159.60;;;149.40;;
27839;SDS011;15207;42.182;24.308;2024-02-14T04:55:53;163.20;;;153.40;;
27839;SDS011;15207;42.182;24.308;2024-02-14T04:58:19;175.20;;;162.90;;
27839;SDS011;15207;42.182;24.308;2024-02-14T05:00:45;165.40;;;155.20;;
27839;SDS011;15207;42.182;24.308;2024-02-14T05:03:10;162.50;;;152.50;;
27839;SDS011;15207;42.182;24.308;2024-02-14T05:05:36;162.30;;;151.60;;
27839;SDS011;15207;42.182;24.308;2024-02-14T05:08:03;163.90;;;153.00;;
27839;SDS011;15207;42.182;24.308;2024-02-14T05:12:54;233.30;;;213.95;;
27839;SDS011;15207;42.182;24.308;2024-02-14T05:15:19;200.70;;;185.90;;
27839;SDS011;15207;42.182;24.308;2024-02-14T05:17:45;168.40;;;157.60;;
27839;SDS011;15207;42.182;24.308;2024-02-14T05:20:10;166.90;;;155.90;;
27839;SDS011;15207;42.182;24.308;2024-02-14T05:22:36;171.50;;;161.20;;
27839;SDS011;15207;42.182;24.308;2024-02-14T05:25:05;169.60;;;159.20;;
27839;SDS011;15207;42.182;24.308;2024-02-14T05:27:33;166.30;;;155.50;;
27839;SDS011;15207;42.182;24.308;2024-02-14T05:29:59;164.10;;;153.70;;
27839;SDS011;15207;42.182;24.308;2024-02-14T05:32:24;168.15;;;157.30;;
27839;SDS011;15207;42.182;24.308;2024-02-14T05:34:50;165.23;;;154.83;;
27839;SDS011;15207;42.182;24.308;2024-02-14T05:37:16;162.70;;;152.60;;
27839;SDS011;15207;42.182;24.308;2024-02-14T05:42:07;199.75;;;185.15;;
27839;SDS011;15207;42.182;24.308;2024-02-14T05:44:33;212.35;;;193.85;;
27839;SDS011;15207;42.182;24.308;2024-02-14T05:46:58;234.50;;;211.00;;
27839;SDS011;15207;42.182;24.308;2024-02-14T05:49:23;235.75;;;211.65;;
27839;SDS011;15207;42.182;24.308;2024-02-14T05:51:49;227.00;;;204.40;;
27839;SDS011;15207;42.182;24.308;2024-02-14T05:54:17;204.30;;;182.60;;
27839;SDS011;15207;42.182;24.308;2024-02-14T06:01:34;185.15;;;171.70;;
27839;SDS011;15207;42.182;24.308;2024-02-14T06:04:00;171.80;;;160.20;;
27839;SDS011;15207;42.182;24.308;2024-02-14T06:06:26;171.95;;;161.00;;
27839;SDS011;15207;42.182;24.308;2024-02-14T06:08:51;157.30;;;147.30;;
27839;SDS011;15207;42.182;24.308;2024-02-14T06:11:17;162.30;;;152.30;;
27839;SDS011;15207;42.182;24.308;2024-02-14T06:16:11;167.85;;;154.90;;
27839;SDS011;15207;42.182;24.308;2024-02-14T06:18:36;161.30;;;151.10;;
27839;SDS011;15207;42.182;24.308;2024-02-14T06:21:02;156.30;;;145.70;;
27839;SDS011;15207;42.182;24.308;2024-02-14T06:23:27;165.00;;;153.95;;
27839;SDS011;15207;42.182;24.308;2024-02-14T06:25:53;162.70;;;152.30;;
27839;SDS011;15207;42.182;24.308;2024-02-14T06:33:09;164.45;;;152.80;;
27839;SDS011;15207;42.182;24.308;2024-02-14T06:35:34;162.95;;;152.45;;
27839;SDS011;15207;42.182;24.308;2024-02-14T06:38:00;181.40;;;167.20;;
27839;SDS011;15207;42.182;24.308;2024-02-14T06:40:25;163.20;;;150.90;;
27839;SDS011;15207;42.182;24.308;2024-02-14T06:42:52;158.10;;;147.90;;
27839;SDS011;15207;42.182;24.308;2024-02-14T06:45:19;169.80;;;156.00;;
27839;SDS011;15207;42.182;24.308;2024-02-14T06:50:10;159.85;;;148.70;;
27839;SDS011;15207;42.182;24.308;2024-02-14T06:52:35;157.25;;;145.90;;
27839;SDS011;15207;42.182;24.308;2024-02-14T06:57:28;154.00;;;143.20;;
27839;SDS011;15207;42.182;24.308;2024-02-14T07:02:19;154.70;;;144.10;;
27839;SDS011;15207;42.182;24.308;2024-02-14T07:04:46;151.70;;;141.80;;
27839;SDS011;15207;42.182;24.308;2024-02-14T07:07:11;162.10;;;150.55;;
27839;SDS011;15207;42.182;24.308;2024-02-14T07:09:37;160.60;;;149.60;;
27839;SDS011;15207;42.182;24.308;2024-02-14T07:12:04;157.90;;;147.65;;
27839;SDS011;15207;42.182;24.308;2024-02-14T07:14:29;154.40;;;143.90;;
27839;SDS011;15207;42.182;24.308;2024-02-14T07:16:55;158.50;;;147.80;;
27839;SDS011;15207;42.182;24.308;2024-02-14T07:19:20;155.60;;;144.40;;
27839;SDS011;15207;42.182;24.308;2024-02-14T07:21:46;160.10;;;149.25;;
27839;SDS011;15207;42.182;24.308;2024-02-14T07:24:11;156.15;;;144.90;;
27839;SDS011;15207;42.182;24.308;2024-02-14T07:26:36;150.60;;;140.85;;
27839;SDS011;15207;42.182;24.308;2024-02-14T07:29:02;154.50;;;143.20;;
27839;SDS011;15207;42.182;24.308;2024-02-14T07:31:29;153.50;;;143.30;;
27839;SDS011;15207;42.182;24.308;2024-02-14T07:33:59;148.80;;;138.20;;
27839;SDS011;15207;42.182;24.308;2024-02-14T07:36:25;153.30;;;143.15;;
27839;SDS011;15207;42.182;24.308;2024-02-14T07:38:50;158.50;;;147.20;;
27839;SDS011;15207;42.182;24.308;2024-02-14T07:41:16;146.55;;;136.85;;
27839;SDS011;15207;42.182;24.308;2024-02-14T07:46:06;153.90;;;143.20;;
27839;SDS011;15207;42.182;24.308;2024-02-14T07:48:32;155.20;;;144.80;;
27839;SDS011;15207;42.182;24.308;2024-02-14T07:50:58;152.00;;;141.20;;
27839;SDS011;15207;42.182;24.308;2024-02-14T07:53:24;153.40;;;143.40;;
27839;SDS011;15207;42.182;24.308;2024-02-14T07:55:50;155.45;;;145.40;;
27839;SDS011;15207;42.182;24.308;2024-02-14T07:58:17;158.95;;;148.05;;
27839;SDS011;15207;42.182;24.308;2024-02-14T08:00:43;154.40;;;143.50;;
27839;SDS011;15207;42.182;24.308;2024-02-14T08:03:08;152.80;;;142.00;;
27839;SDS011;15207;42.182;24.308;2024-02-14T08:05:33;153.90;;;142.40;;
27839;SDS011;15207;42.182;24.308;2024-02-14T08:07:59;148.50;;;138.80;;
27839;SDS011;15207;42.182;24.308;2024-02-14T08:10:24;144.15;;;134.15;;
27839;SDS011;15207;42.182;24.308;2024-02-14T08:12:50;151.60;;;140.50;;
27839;SDS011;15207;42.182;24.308;2024-02-14T08:15:15;151.55;;;141.30;;
27839;SDS011;15207;42.182;24.308;2024-02-14T08:20:06;148.20;;;137.80;;
27839;SDS011;15207;42.182;24.308;2024-02-14T08:22:32;145.00;;;135.30;;
27839;SDS011;15207;42.182;24.308;2024-02-14T08:24:58;148.50;;;137.90;;
27839;SDS011;15207;42.182;24.308;2024-02-14T08:27:24;138.80;;;129.10;;
27839;SDS011;15207;42.182;24.308;2024-02-14T08:29:50;141.20;;;131.90;;
27839;SDS011;15207;42.182;24.308;2024-02-14T08:32:16;141.10;;;130.90;;
27839;SDS011;15207;42.182;24.308;2024-02-14T08:34:41;139.20;;;128.90;;
27839;SDS011;15207;42.182;24.308;2024-02-14T08:37:06;135.20;;;125.50;;
27839;SDS011;15207;42.182;24.308;2024-02-14T08:39:33;144.00;;;132.85;;
27839;SDS011;15207;42.182;24.308;2024-02-14T08:41:59;130.85;;;121.90;;
27839;SDS011;15207;42.182;24.308;2024-02-14T08:44:27;137.50;;;127.35;;
27839;SDS011;15207;42.182;24.308;2024-02-14T08:46:52;208.30;;;169.45;;
27839;SDS011;15207;42.182;24.308;2024-02-14T08:49:18;166.30;;;148.70;;
27839;SDS011;15207;42.182;24.308;2024-02-14T08:51:43;153.30;;;137.00;;
27839;SDS011;15207;42.182;24.308;2024-02-14T08:54:11;148.00;;;132.20;;
27839;SDS011;15207;42.182;24.308;2024-02-14T08:56:37;203.70;;;156.10;;
27839;SDS011;15207;42.182;24.308;2024-02-14T08:59:02;219.85;;;156.85;;
27839;SDS011;15207;42.182;24.308;2024-02-14T09:03:54;142.30;;;131.20;;
27839;SDS011;15207;42.182;24.308;2024-02-14T09:06:19;141.90;;;130.80;;
27839;SDS011;15207;42.182;24.308;2024-02-14T09:08:46;136.90;;;127.20;;
27839;SDS011;15207;42.182;24.308;2024-02-14T09:11:12;138.45;;;128.50;;
27839;SDS011;15207;42.182;24.308;2024-02-14T09:13:38;133.85;;;123.75;;
27839;SDS011;15207;42.182;24.308;2024-02-14T09:16:05;128.97;;;119.67;;
27839;SDS011;15207;42.182;24.308;2024-02-14T09:18:32;118.75;;;110.30;;
27839;SDS011;15207;42.182;24.308;2024-02-14T09:20:58;127.25;;;118.05;;
27839;SDS011;15207;42.182;24.308;2024-02-14T09:23:23;103.50;;;95.20;;
27839;SDS011;15207;42.182;24.308;2024-02-14T09:25:49;114.70;;;106.30;;
27839;SDS011;15207;42.182;24.308;2024-02-14T09:28:18;117.20;;;108.00;;
27839;SDS011;15207;42.182;24.308;2024-02-14T09:30:44;108.70;;;100.70;;
27839;SDS011;15207;42.182;24.308;2024-02-14T09:33:10;99.80;;;92.60;;
27839;SDS011;15207;42.182;24.308;2024-02-14T09:38:02;113.65;;;104.80;;
27839;SDS011;15207;42.182;24.308;2024-02-14T09:40:28;107.30;;;98.95;;
27839;SDS011;15207;42.182;24.308;2024-02-14T09:42:54;114.25;;;105.25;;
27839;SDS011;15207;42.182;24.308;2024-02-14T09:47:51;87.00;;;80.25;;
27839;SDS011;15207;42.182;24.308;2024-02-14T09:50:18;102.00;;;94.50;;
27839;SDS011;15207;42.182;24.308;2024-02-14T09:52:46;106.90;;;96.70;;
27839;SDS011;15207;42.182;24.308;2024-02-14T09:55:13;91.50;;;84.40;;
27839;SDS011;15207;42.182;24.308;2024-02-14T09:57:41;97.45;;;90.45;;
27839;SDS011;15207;42.182;24.308;2024-02-14T10:00:09;100.85;;;93.60;;
27839;SDS011;15207;42.182;24.308;2024-02-14T10:02:35;94.65;;;87.50;;
27839;SDS011;15207;42.182;24.308;2024-02-14T10:05:01;105.90;;;98.50;;
27839;SDS011;15207;42.182;24.308;2024-02-14T10:07:26;115.80;;;107.20;;
27839;SDS011;15207;42.182;24.308;2024-02-14T10:09:52;93.60;;;86.40;;
27839;SDS011;15207;42.182;24.308;2024-02-14T10:12:18;90.20;;;83.85;;
27839;SDS011;15207;42.182;24.308;2024-02-14T10:14:44;111.20;;;102.60;;
27839;SDS011;15207;42.182;24.308;2024-02-14T10:17:17;130.85;;;119.15;;
27839;SDS011;15207;42.182;24.308;2024-02-14T10:19:43;128.70;;;119.30;;
27839;SDS011;15207;42.182;24.308;2024-02-14T10:22:08;153.70;;;142.30;;
27839;SDS011;15207;42.182;24.308;2024-02-14T10:24:34;134.65;;;125.45;;
27839;SDS011;15207;42.182;24.308;2024-02-14T10:27:00;143.50;;;134.20;;
27839;SDS011;15207;42.182;24.308;2024-02-14T10:29:25;128.30;;;119.70;;
27839;SDS011;15207;42.182;24.308;2024-02-14T10:31:54;130.10;;;121.50;;
27839;SDS011;15207;42.182;24.308;2024-02-14T10:34:20;143.00;;;133.10;;
27839;SDS011;15207;42.182;24.308;2024-02-14T10:36:50;147.60;;;137.10;;
27839;SDS011;15207;42.182;24.308;2024-02-14T10:39:18;136.05;;;127.10;;
27839;SDS011;15207;42.182;24.308;2024-02-14T10:41:44;116.80;;;108.30;;
27839;SDS011;15207;42.182;24.308;2024-02-14T10:44:09;124.40;;;116.50;;
27839;SDS011;15207;42.182;24.308;2024-02-14T10:46:36;107.20;;;99.20;;
27839;SDS011;15207;42.182;24.308;2024-02-14T10:49:03;92.00;;;85.00;;
27839;SDS011;15207;42.182;24.308;2024-02-14T10:51:33;97.80;;;91.10;;
27839;SDS011;15207;42.182;24.308;2024-02-14T10:54:18;98.53;;;91.07;;
27839;SDS011;15207;42.182;24.308;2024-02-14T10:56:48;95.50;;;87.75;;
27839;SDS011;15207;42.182;24.308;2024-02-14T11:01:43;91.70;;;84.20;;
27839;SDS011;15207;42.182;24.308;2024-02-14T11:04:09;71.10;;;65.80;;
27839;SDS011;15207;42.182;24.308;2024-02-14T11:06:47;75.90;;;70.10;;
27839;SDS011;15207;42.182;24.308;2024-02-14T11:09:14;95.00;;;87.40;;
27839;SDS011;15207;42.182;24.308;2024-02-14T11:11:43;78.10;;;71.20;;
27839;SDS011;15207;42.182;24.308;2024-02-14T11:14:09;75.25;;;69.00;;
27839;SDS011;15207;42.182;24.308;2024-02-14T11:16:36;77.07;;;71.00;;
27839;SDS011;15207;42.182;24.308;2024-02-14T11:19:09;60.85;;;55.60;;
27839;SDS011;15207;42.182;24.308;2024-02-14T11:24:09;59.10;;;53.45;;
27839;SDS011;15207;42.182;24.308;2024-02-14T11:26:39;55.78;;;50.90;;
27839;SDS011;15207;42.182;24.308;2024-02-14T11:29:16;53.80;;;48.30;;
27839;SDS011;15207;42.182;24.308;2024-02-14T11:34:08;53.70;;;48.87;;
27839;SDS011;15207;42.182;24.308;2024-02-14T11:36:36;44.95;;;40.75;;
27839;SDS011;15207;42.182;24.308;2024-02-14T11:39:05;45.35;;;39.60;;
27839;SDS011;15207;42.182;24.308;2024-02-14T11:41:32;39.00;;;35.50;;
27839;SDS011;15207;42.182;24.308;2024-02-14T11:46:31;42.55;;;38.10;;
27839;SDS011;15207;42.182;24.308;2024-02-14T11:48:58;36.55;;;32.80;;
27839;SDS011;15207;42.182;24.308;2024-02-14T11:51:31;36.50;;;33.10;;
27839;SDS011;15207;42.182;24.308;2024-02-14T11:53:58;50.65;;;39.55;;
27839;SDS011;15207;42.182;24.308;2024-02-14T11:56:32;37.70;;;34.10;;
27839;SDS011;15207;42.182;24.308;2024-02-14T11:59:01;67.55;;;44.85;;
27839;SDS011;15207;42.182;24.308;2024-02-14T12:01:28;41.10;;;36.80;;
27839;SDS011;15207;42.182;24.308;2024-02-14T12:04:00;37.00;;;33.30;;
27839;SDS011;15207;42.182;24.308;2024-02-14T12:06:34;38.65;;;34.47;;
27839;SDS011;15207;42.182;24.308;2024-02-14T12:09:03;41.20;;;35.30;;
27839;SDS011;15207;42.182;24.308;2024-02-14T12:11:33;39.25;;;35.35;;
27839;SDS011;15207;42.182;24.308;2024-02-14T12:14:05;39.20;;;35.30;;
27839;SDS011;15207;42.182;24.308;2024-02-14T12:16:31;35.50;;;32.30;;
27839;SDS011;15207;42.182;24.308;2024-02-14T12:21:37;41.10;;;35.00;;
27839;SDS011;15207;42.182;24.308;2024-02-14T12:26:32;38.20;;;32.80;;
27839;SDS011;15207;42.182;24.308;2024-02-14T12:29:00;35.97;;;32.57;;
27839;SDS011;15207;42.182;24.308;2024-02-14T12:31:27;36.70;;;32.90;;
27839;SDS011;15207;42.182;24.308;2024-02-14T12:33:52;36.40;;;33.30;;
27839;SDS011;15207;42.182;24.308;2024-02-14T12:36:20;38.90;;;35.00;;
27839;SDS011;15207;42.182;24.308;2024-02-14T12:38:45;37.00;;;33.40;;
27839;SDS011;15207;42.182;24.308;2024-02-14T12:41:11;33.85;;;30.80;;
27839;SDS011;15207;42.182;24.308;2024-02-14T12:43:36;37.57;;;33.40;;
27839;SDS011;15207;42.182;24.308;2024-02-14T12:46:02;40.40;;;34.55;;
27839;SDS011;15207;42.182;24.308;2024-02-14T12:48:29;35.35;;;32.35;;
27839;SDS011;15207;42.182;24.308;2024-02-14T12:50:55;35.15;;;31.90;;
27839;SDS011;15207;42.182;24.308;2024-02-14T12:53:21;38.40;;;34.70;;
27839;SDS011;15207;42.182;24.308;2024-02-14T12:55:47;34.05;;;30.85;;
27839;SDS011;15207;42.182;24.308;2024-02-14T12:58:12;36.10;;;32.40;;
27839;SDS011;15207;42.182;24.308;2024-02-14T13:00:40;35.90;;;32.10;;
27839;SDS011;15207;42.182;24.308;2024-02-14T13:03:06;37.10;;;33.20;;
27839;SDS011;15207;42.182;24.308;2024-02-14T13:05:31;42.10;;;33.40;;
27839;SDS011;15207;42.182;24.308;2024-02-14T13:07:56;35.80;;;32.45;;
27839;SDS011;15207;42.182;24.308;2024-02-14T13:10:22;46.65;;;40.15;;
27839;SDS011;15207;42.182;24.308;2024-02-14T13:12:48;88.43;;;57.83;;
27839;SDS011;15207;42.182;24.308;2024-02-14T13:15:14;116.50;;;67.30;;
27839;SDS011;15207;42.182;24.308;2024-02-14T13:17:40;104.85;;;61.00;;
27839;SDS011;15207;42.182;24.308;2024-02-14T13:20:06;57.95;;;42.10;;
27839;SDS011;15207;42.182;24.308;2024-02-14T13:22:32;48.30;;;37.80;;
27839;SDS011;15207;42.182;24.308;2024-02-14T13:24:58;44.30;;;39.90;;
27839;SDS011;15207;42.182;24.308;2024-02-14T13:27:25;40.75;;;36.85;;
27839;SDS011;15207;42.182;24.308;2024-02-14T13:29:51;43.35;;;39.65;;
27839;SDS011;15207;42.182;24.308;2024-02-14T13:32:16;45.15;;;40.80;;
27839;SDS011;15207;42.182;24.308;2024-02-14T13:34:42;40.85;;;37.20;;
27839;SDS011;15207;42.182;24.308;2024-02-14T13:37:08;45.57;;;41.00;;
27839;SDS011;15207;42.182;24.308;2024-02-14T13:39:34;43.50;;;38.80;;
27839;SDS011;15207;42.182;24.308;2024-02-14T13:42:00;44.30;;;40.00;;
27839;SDS011;15207;42.182;24.308;2024-02-14T13:44:26;48.50;;;43.80;;
27839;SDS011;15207;42.182;24.308;2024-02-14T13:46:51;49.50;;;45.10;;
27839;SDS011;15207;42.182;24.308;2024-02-14T13:49:18;42.80;;;39.20;;
27839;SDS011;15207;42.182;24.308;2024-02-14T13:51:50;42.30;;;38.30;;
27839;SDS011;15207;42.182;24.308;2024-02-14T13:54:19;47.80;;;43.15;;
27839;SDS011;15207;42.182;24.308;2024-02-14T13:56:44;48.00;;;43.80;;
27839;SDS011;15207;42.182;24.308;2024-02-14T13:59:11;49.60;;;45.10;;
27839;SDS011;15207;42.182;24.308;2024-02-14T14:01:36;48.30;;;43.80;;
27839;SDS011;15207;42.182;24.308;2024-02-14T14:06:29;58.20;;;52.55;;
27839;SDS011;15207;42.182;24.308;2024-02-14T14:08:54;53.20;;;48.45;;
27839;SDS011;15207;42.182;24.308;2024-02-14T14:11:20;55.50;;;51.00;;
27839;SDS011;15207;42.182;24.308;2024-02-14T14:13:45;53.90;;;49.10;;
27839;SDS011;15207;42.182;24.308;2024-02-14T14:16:10;50.50;;;46.00;;
27839;SDS011;15207;42.182;24.308;2024-02-14T14:18:36;52.00;;;48.00;;
27839;SDS011;15207;42.182;24.308;2024-02-14T14:21:01;53.00;;;48.00;;
27839;SDS011;15207;42.182;24.308;2024-02-14T14:23:27;52.80;;;48.00;;
27839;SDS011;15207;42.182;24.308;2024-02-14T14:25:53;53.90;;;49.50;;
27839;SDS011;15207;42.182;24.308;2024-02-14T14:28:18;58.40;;;52.85;;
27839;SDS011;15207;42.182;24.308;2024-02-14T14:33:15;77.00;;;66.05;;
27839;SDS011;15207;42.182;24.308;2024-02-14T14:38:07;62.95;;;57.70;;
27839;SDS011;15207;42.182;24.308;2024-02-14T14:40:32;79.50;;;70.40;;
27839;SDS011;15207;42.182;24.308;2024-02-14T14:42:58;66.40;;;60.50;;
27839;SDS011;15207;42.182;24.308;2024-02-14T14:45:23;64.80;;;59.35;;
27839;SDS011;15207;42.182;24.308;2024-02-14T14:47:49;62.20;;;56.35;;
27839;SDS011;15207;42.182;24.308;2024-02-14T14:50:14;88.00;;;78.40;;
27839;SDS011;15207;42.182;24.308;2024-02-14T14:52:43;67.30;;;62.00;;
27839;SDS011;15207;42.182;24.308;2024-02-14T14:55:09;77.90;;;70.30;;
27839;SDS011;15207;42.182;24.308;2024-02-14T14:57:35;66.80;;;61.00;;
27839;SDS011;15207;42.182;24.308;2024-02-14T15:00:09;74.65;;;67.60;;
27839;SDS011;15207;42.182;24.308;2024-02-14T15:02:39;67.60;;;61.75;;
27839;SDS011;15207;42.182;24.308;2024-02-14T15:05:10;68.85;;;62.35;;
27839;SDS011;15207;42.182;24.308;2024-02-14T15:10:02;71.30;;;65.70;;